createdAt,value
2019-01-25T00:01:52.750Z,44.07
2019-01-25T00:06:57.325Z,44.27
2019-01-25T00:12:01.605Z,34.93
2019-01-25T00:17:06.476Z,37.23
2019-01-25T00:22:13.972Z,36.57
2019-01-25T00:27:18.506Z,33.85
2019-01-25T00:32:23.325Z,35.27
2019-01-25T00:37:27.766Z,31.53
2019-01-25T00:42:32.173Z,40.67
2019-01-25T00:47:37.568Z,36.80
2019-01-25T00:52:42.214Z,44.80
2019-01-25T00:57:47.256Z,45.50
2019-01-25T01:02:52.204Z,41.90
2019-01-25T01:07:57.039Z,40.90
2019-01-25T01:13:03.807Z,38.10
2019-01-25T01:18:08.627Z,35.53
2019-01-25T01:23:16.086Z,39.13
2019-01-25T01:28:20.878Z,37.97
2019-01-25T01:33:28.611Z,43.60
2019-01-25T01:38:36.173Z,52.70
2019-01-25T01:43:42.377Z,45.47
2019-01-25T01:48:47.034Z,46.97
2019-01-25T01:53:51.669Z,48.80
2019-01-25T01:58:59.702Z,50.80
2019-01-25T02:04:04.443Z,53.23
2019-01-25T02:09:10.058Z,53.20
2019-01-25T02:14:14.637Z,50.03
2019-01-25T02:19:19.087Z,55.73
2019-01-25T02:24:24.110Z,58.97
2019-01-25T02:29:31.821Z,49.97
2019-01-25T02:34:36.972Z,54.73
2019-01-25T02:39:41.857Z,56.27
2019-01-25T02:44:46.550Z,58.57
2019-01-25T02:49:53.815Z,55.00
2019-01-25T02:55:01.158Z,52.93
2019-01-25T03:00:11.817Z,52.70
2019-01-25T03:05:17.518Z,59.50
2019-01-25T03:10:28.520Z,52.33
2019-01-25T03:15:29.023Z,46.03
2019-01-25T03:20:36.198Z,54.30
2019-01-25T03:25:41.265Z,53.50
2019-01-25T03:30:46.470Z,48.98
2019-01-25T03:35:51.016Z,51.23
2019-01-25T03:40:55.612Z,50.57
2019-01-25T03:46:00.358Z,53.27
2019-01-25T03:51:05.136Z,52.23
2019-01-25T03:56:09.469Z,55.07
2019-01-25T04:01:14.303Z,46.43
2019-01-25T04:06:20.180Z,46.33
2019-01-25T04:11:25.027Z,53.27
2019-01-25T04:16:29.773Z,64.40
2019-01-25T04:21:35.916Z,49.40
2019-01-25T04:26:40.827Z,46.77
2019-01-25T04:31:45.310Z,49.00
2019-01-25T04:36:49.901Z,49.50
2019-01-25T04:41:54.737Z,54.67
2019-01-25T04:46:59.409Z,50.33
2019-01-25T04:52:06.125Z,48.92
2019-01-25T04:57:10.677Z,49.40
2019-01-25T05:02:15.989Z,53.13
2019-01-25T05:07:20.282Z,49.67
2019-01-25T05:12:25.136Z,49.87
2019-01-25T05:17:30.105Z,45.47
2019-01-25T05:22:35.996Z,51.00
2019-01-25T05:27:40.678Z,49.90
2019-01-25T05:32:45.815Z,46.75
2019-01-25T05:37:51.050Z,59.23
2019-01-25T05:42:56.155Z,51.83
2019-01-25T05:48:01.459Z,52.33
2019-01-25T05:53:07.123Z,48.03
2019-01-25T05:58:12.775Z,52.43
2019-01-25T06:03:17.854Z,53.80
2019-01-25T06:08:32.594Z,49.85
2019-01-25T06:13:37.105Z,61.17
2019-01-25T06:18:42.595Z,58.57
2019-01-25T06:23:47.298Z,50.93
2019-01-25T06:28:52.207Z,53.33
2019-01-25T06:33:56.748Z,53.90
2019-01-25T06:39:01.753Z,59.27
2019-01-25T06:44:07.397Z,55.33
2019-01-25T06:49:11.854Z,68.33
2019-01-25T06:54:16.314Z,52.83
2019-01-25T06:59:27.071Z,60.50
2019-01-25T07:04:31.539Z,53.70
2019-01-25T07:09:38.008Z,54.70
2019-01-25T07:14:42.852Z,51.60
2019-01-25T07:19:47.374Z,57.07
2019-01-25T07:24:57.332Z,53.00
2019-01-25T07:30:01.135Z,51.60
2019-01-25T07:35:07.128Z,49.67
2019-01-25T07:40:11.821Z,57.60
2019-01-25T07:45:16.508Z,57.30
2019-01-25T07:50:21.309Z,57.08
2019-01-25T07:55:28.116Z,55.17
2019-01-25T08:00:33.320Z,52.23
2019-01-25T08:05:39.151Z,54.87
2019-01-25T08:10:43.756Z,52.40
2019-01-25T08:15:48.545Z,56.57
2019-01-25T08:20:53.397Z,54.60
2019-01-25T08:25:58.497Z,49.70
2019-01-25T08:31:03.372Z,53.40
2019-01-25T08:36:07.829Z,50.70
2019-01-25T08:41:13.226Z,50.53
2019-01-25T08:46:18.458Z,47.90
2019-01-25T08:51:23.484Z,45.87
2019-01-25T08:56:27.857Z,43.60
2019-01-25T09:01:32.590Z,42.87
2019-01-25T09:06:37.413Z,46.30
2019-01-25T09:11:42.673Z,53.70
2019-01-25T09:16:48.347Z,49.70
2019-01-25T09:21:52.944Z,40.70
2019-01-25T09:26:57.804Z,42.20
2019-01-25T09:32:05.575Z,45.67
2019-01-25T09:37:10.423Z,45.47
2019-01-25T09:42:14.852Z,41.23
2019-01-25T09:47:19.323Z,40.57
2019-01-25T09:52:23.626Z,46.00
2019-01-25T09:57:28.292Z,43.17
2019-01-25T10:02:33.008Z,39.83
2019-01-25T10:07:40.494Z,41.90
2019-01-25T10:12:47.604Z,45.17
2019-01-25T10:17:52.664Z,43.80
2019-01-25T10:22:57.174Z,45.83
2019-01-25T10:28:01.525Z,42.47
2019-01-25T10:33:06.319Z,39.20
2019-01-25T10:38:11.155Z,40.50
2019-01-25T10:43:19.582Z,40.70
2019-01-25T10:48:24.637Z,42.27
2019-01-25T10:53:29.204Z,34.43
2019-01-25T10:58:33.664Z,36.60
2019-01-25T11:03:39.867Z,32.57
2019-01-25T11:08:44.382Z,41.57
2019-01-25T11:13:48.924Z,34.20
2019-01-25T11:18:53.536Z,30.77
2019-01-25T11:24:00.553Z,31.63
2019-01-25T11:29:06.047Z,31.37
2019-01-25T11:34:10.762Z,29.50
2019-01-25T11:39:15.197Z,29.27
2019-01-25T11:44:19.540Z,28.47
2019-01-25T11:49:23.987Z,33.00
2019-01-25T11:54:30.759Z,28.60
2019-01-25T11:59:36.085Z,31.13
2019-01-25T12:04:41.083Z,28.20
2019-01-25T12:09:48.504Z,27.10
2019-01-25T12:14:53.473Z,27.17
2019-01-25T12:19:58.277Z,28.03
2019-01-25T12:25:03.884Z,29.67
2019-01-25T12:30:27.161Z,27.93
2019-01-25T12:35:35.636Z,30.47
2019-01-25T12:40:42.006Z,27.40
2019-01-25T12:45:50.162Z,25.30
2019-01-25T12:51:10.290Z,27.53
2019-01-25T12:56:17.047Z,26.17
2019-01-25T13:01:23.115Z,25.93
2019-01-25T13:06:28.003Z,22.57
2019-01-25T13:11:33.484Z,22.20
2019-01-25T13:16:38.907Z,21.50
2019-01-25T13:21:43.400Z,19.60
2019-01-25T13:26:48.782Z,20.17
2019-01-25T13:31:53.982Z,19.03
2019-01-25T13:36:58.819Z,17.60
2019-01-25T13:42:03.462Z,20.30
2019-01-25T13:47:07.973Z,18.27
2019-01-25T13:52:15.899Z,17.87
2019-01-25T13:57:20.683Z,19.70
2019-01-25T14:02:28.689Z,20.87
2019-01-25T14:07:33.141Z,15.97
2019-01-25T14:12:38.903Z,19.40
2019-01-25T14:17:44.199Z,20.63
2019-01-25T14:22:51.494Z,18.73
2019-01-25T14:27:56.949Z,21.07
2019-01-25T14:33:04.747Z,21.03
2019-01-25T14:38:10.767Z,19.70
2019-01-25T14:43:17.749Z,22.03
2019-01-25T14:48:24.747Z,22.40
2019-01-25T14:53:31.563Z,18.03
2019-01-25T14:58:36.306Z,21.97
2019-01-25T15:03:41.150Z,16.87
2019-01-25T15:08:57.589Z,18.00
2019-01-25T15:14:02.694Z,21.47
2019-01-25T15:19:07.890Z,20.68
2019-01-25T15:24:12.941Z,23.57
2019-01-25T15:29:17.631Z,20.57
2019-01-25T15:34:21.959Z,22.80
2019-01-25T15:39:29.308Z,21.53
2019-01-25T15:44:36.311Z,19.33
2019-01-25T15:49:42.792Z,24.77
2019-01-25T15:54:47.453Z,22.23
2019-01-25T15:59:54.313Z,19.13
2019-01-25T16:05:00.036Z,22.87
2019-01-25T16:10:06.263Z,18.43
2019-01-25T16:15:13.582Z,19.77
2019-01-25T16:20:19.549Z,23.17
2019-01-25T16:25:33.883Z,22.93
2019-01-25T16:30:40.162Z,24.72
2019-01-25T16:35:44.723Z,21.00
2019-01-25T16:40:49.829Z,22.37
2019-01-25T16:45:54.235Z,18.90
2019-01-25T16:51:00.283Z,25.20
2019-01-25T16:56:06.114Z,25.67
2019-01-25T17:01:13.274Z,20.47
2019-01-25T17:06:18.037Z,19.93
2019-01-25T17:11:22.582Z,16.87
2019-01-25T17:16:32.770Z,17.87
2019-01-25T17:21:39.122Z,16.32
2019-01-25T17:26:45.836Z,16.43
2019-01-25T17:31:50.535Z,13.70
2019-01-25T17:36:56.366Z,14.00
2019-01-25T17:42:02.415Z,16.83
2019-01-25T17:47:07.298Z,11.80
2019-01-25T17:52:14.938Z,12.50
2019-01-25T17:57:20.007Z,11.07
2019-01-25T18:02:24.904Z,13.67
2019-01-25T18:07:30.939Z,14.57
2019-01-25T18:12:42.471Z,18.23
2019-01-25T18:17:49.328Z,11.83
2019-01-25T18:22:54.218Z,13.83
2019-01-25T18:28:01.334Z,12.97
2019-01-25T18:33:06.583Z,14.40
2019-01-25T18:38:11.081Z,11.97
2019-01-25T18:43:17.548Z,9.80
2019-01-25T18:48:22.384Z,12.50
2019-01-25T18:53:26.761Z,10.27
2019-01-25T18:58:31.614Z,12.53
2019-01-25T19:03:36.629Z,14.40
2019-01-25T19:08:41.609Z,11.73
2019-01-25T19:13:46.512Z,13.27
2019-01-25T19:18:53.319Z,8.57
2019-01-25T19:23:57.966Z,9.30
2019-01-25T19:29:04.186Z,7.10
2019-01-25T19:34:11.949Z,9.98
2019-01-25T19:39:19.476Z,9.00
2019-01-25T19:44:27.450Z,9.97
2019-01-25T19:49:32.691Z,11.63
2019-01-25T19:54:37.893Z,16.73
2019-01-25T19:59:43.101Z,18.53
2019-01-25T20:04:48.015Z,14.50
2019-01-25T20:09:56.082Z,13.47
2019-01-25T20:15:01.057Z,12.37
2019-01-25T20:20:10.063Z,13.03
2019-01-25T20:25:15.078Z,11.87
2019-01-25T20:30:25.997Z,15.47
2019-01-25T20:35:38.544Z,13.37
2019-01-25T20:40:43.035Z,15.58
2019-01-25T20:45:49.035Z,16.43
2019-01-25T20:50:53.876Z,11.77
2019-01-25T20:55:58.666Z,16.53
2019-01-25T21:01:03.248Z,17.80
2019-01-25T21:06:08.157Z,14.93
2019-01-25T21:11:12.886Z,14.17
2019-01-25T21:16:17.418Z,16.73
2019-01-25T21:21:23.781Z,8.98
2019-01-25T21:26:31.712Z,12.93
2019-01-25T21:31:38.177Z,9.63
2019-01-25T21:36:42.858Z,14.57
2019-01-25T21:41:47.474Z,9.20
2019-01-25T21:46:51.995Z,13.03
2019-01-25T21:51:56.424Z,16.10
2019-01-25T21:57:02.511Z,11.27
2019-01-25T22:02:07.142Z,11.67
2019-01-25T22:07:12.309Z,8.57
2019-01-25T22:12:17.716Z,13.10
2019-01-25T22:17:22.323Z,12.57
2019-01-25T22:22:29.174Z,10.83
2019-01-25T22:27:35.233Z,9.07
2019-01-25T22:32:41.259Z,10.10
2019-01-25T22:37:46.408Z,12.17
2019-01-25T22:42:53.530Z,12.13
2019-01-25T22:48:02.082Z,10.70
2019-01-25T22:53:08.354Z,8.40
2019-01-25T22:58:13.225Z,6.83
2019-01-25T23:03:20.498Z,12.50
2019-01-25T23:08:26.681Z,11.30
2019-01-25T23:13:31.207Z,7.93
2019-01-25T23:18:36.281Z,10.70
2019-01-25T23:23:41.327Z,11.67
2019-01-25T23:28:45.777Z,10.23
2019-01-25T23:33:50.701Z,11.00
2019-01-25T23:38:56.836Z,10.40
2019-01-25T23:44:01.175Z,10.10
2019-01-25T23:49:05.929Z,8.73
2019-01-25T23:54:11.144Z,10.00
2019-01-25T23:59:16.107Z,9.93
